createdAt,value
2023-01-29T00:02:17.983Z,71.22
2023-01-29T00:04:44.688Z,70.94
2023-01-29T00:07:11.429Z,71.00
2023-01-29T00:09:38.090Z,71.06
2023-01-29T00:12:04.803Z,71.25
2023-01-29T00:14:31.475Z,70.99
2023-01-29T00:16:58.178Z,71.46
2023-01-29T00:19:25.985Z,71.80
2023-01-29T00:21:52.663Z,71.23
2023-01-29T00:24:22.074Z,71.25
2023-01-29T00:26:48.747Z,71.32
2023-01-29T00:29:15.491Z,71.24
2023-01-29T00:31:45.429Z,71.47
2023-01-29T00:34:12.109Z,71.34
2023-01-29T00:36:38.886Z,71.36
2023-01-29T00:39:05.564Z,71.28
2023-01-29T00:41:33.937Z,71.94
2023-01-29T00:44:01.948Z,71.45
2023-01-29T00:46:28.608Z,71.70
2023-01-29T00:48:55.285Z,70.99
2023-01-29T00:51:21.958Z,71.58
2023-01-29T00:53:51.707Z,72.07
2023-01-29T00:56:18.350Z,71.93
2023-01-29T00:58:45.009Z,71.63
2023-01-29T01:01:11.698Z,70.85
2023-01-29T01:03:38.361Z,70.96
2023-01-29T01:06:06.913Z,70.99
2023-01-29T01:08:33.635Z,70.96
2023-01-29T01:11:06.346Z,71.20
2023-01-29T01:13:34.535Z,70.80
2023-01-29T01:16:01.323Z,70.92
2023-01-29T01:18:31.458Z,71.00
2023-01-29T01:20:58.701Z,70.62
2023-01-29T01:23:25.908Z,71.01
2023-01-29T01:25:52.556Z,70.78
2023-01-29T01:28:19.160Z,70.46
2023-01-29T01:30:46.044Z,70.01
2023-01-29T01:33:13.021Z,70.42
2023-01-29T01:35:40.238Z,70.16
2023-01-29T01:38:06.875Z,70.36
2023-01-29T01:40:33.538Z,70.91
2023-01-29T01:43:01.466Z,70.77
2023-01-29T01:45:34.231Z,70.57
2023-01-29T01:48:13.658Z,71.06
2023-01-29T01:50:46.530Z,71.65
2023-01-29T01:53:20.319Z,71.61
2023-01-29T01:56:02.157Z,71.57
2023-01-29T01:58:36.993Z,71.57
2023-01-29T02:01:09.226Z,71.89
2023-01-29T02:03:43.731Z,71.95
2023-01-29T02:06:11.367Z,71.32
2023-01-29T02:09:05.836Z,71.76
2023-01-29T02:11:32.617Z,72.18
2023-01-29T02:13:59.637Z,71.71
2023-01-29T02:16:26.315Z,71.69
2023-01-29T02:18:53.332Z,71.57
2023-01-29T02:21:52.255Z,71.78
2023-01-29T02:24:56.366Z,71.89
2023-01-29T02:28:11.012Z,71.53
2023-01-29T02:30:50.543Z,72.30
2023-01-29T02:33:31.528Z,71.88
2023-01-29T02:36:13.244Z,71.01
2023-01-29T02:39:00.687Z,71.41
2023-01-29T02:42:00.950Z,71.62
2023-01-29T02:44:27.524Z,71.98
2023-01-29T02:47:28.889Z,71.60
2023-01-29T02:50:25.689Z,72.24
2023-01-29T02:52:59.788Z,71.94
2023-01-29T02:56:07.458Z,71.71
2023-01-29T02:58:44.100Z,71.54
2023-01-29T03:01:37.128Z,70.95
2023-01-29T03:04:18.827Z,70.76
2023-01-29T03:06:54.797Z,71.25
2023-01-29T03:09:36.510Z,70.68
2023-01-29T03:12:26.116Z,70.27
2023-01-29T03:14:52.874Z,70.67
2023-01-29T03:17:26.957Z,70.66
2023-01-29T03:19:54.433Z,70.66
2023-01-29T03:22:22.517Z,70.80
2023-01-29T03:25:02.930Z,70.18
2023-01-29T03:27:57.399Z,69.77
2023-01-29T03:30:28.692Z,69.82
2023-01-29T03:32:59.165Z,69.90
2023-01-29T03:35:31.107Z,69.53
2023-01-29T03:37:57.825Z,69.72
2023-01-29T03:40:25.428Z,69.80
2023-01-29T03:43:16.443Z,69.89
2023-01-29T03:46:00.660Z,69.76
2023-01-29T03:48:42.714Z,69.95
2023-01-29T03:51:30.063Z,69.59
2023-01-29T03:54:18.616Z,69.50
2023-01-29T03:57:10.796Z,68.89
2023-01-29T03:59:55.369Z,69.27
2023-01-29T04:02:30.059Z,69.17
2023-01-29T04:05:05.608Z,69.32
2023-01-29T04:07:35.221Z,69.44
2023-01-29T04:10:16.833Z,69.31
2023-01-29T04:13:00.917Z,69.18
2023-01-29T04:15:34.057Z,69.80
2023-01-29T04:18:02.046Z,69.95
2023-01-29T04:20:29.232Z,68.99
2023-01-29T04:22:55.874Z,67.46
2023-01-29T04:25:27.242Z,68.07
2023-01-29T04:27:56.727Z,69.18
2023-01-29T04:30:39.058Z,68.87
2023-01-29T04:33:29.856Z,68.83
2023-01-29T04:36:05.252Z,69.41
2023-01-29T04:38:31.934Z,69.11
2023-01-29T04:41:11.995Z,69.46
2023-01-29T04:44:01.472Z,69.24
2023-01-29T04:47:07.164Z,70.22
2023-01-29T04:49:36.440Z,69.83
2023-01-29T04:52:17.751Z,69.72
2023-01-29T04:54:54.211Z,69.50
2023-01-29T04:57:25.744Z,69.81
2023-01-29T05:00:10.087Z,69.89
2023-01-29T05:02:39.958Z,69.99
2023-01-29T05:05:09.895Z,70.13
2023-01-29T05:07:40.500Z,70.08
2023-01-29T05:10:12.192Z,69.45
2023-01-29T05:12:43.254Z,69.90
2023-01-29T05:15:17.842Z,70.13
2023-01-29T05:17:44.503Z,70.55
2023-01-29T05:20:12.448Z,70.77
2023-01-29T05:22:42.002Z,70.16
2023-01-29T05:25:35.036Z,68.87
2023-01-29T05:28:01.738Z,68.38
2023-01-29T05:30:28.375Z,69.40
2023-01-29T05:32:55.073Z,68.55
2023-01-29T05:35:21.712Z,69.11
2023-01-29T05:37:48.384Z,69.57
2023-01-29T05:40:15.640Z,68.65
2023-01-29T05:42:42.447Z,69.32
2023-01-29T05:45:09.549Z,68.90
2023-01-29T05:47:36.202Z,69.80
2023-01-29T05:50:02.964Z,69.40
2023-01-29T05:52:29.580Z,68.76
2023-01-29T05:54:56.185Z,68.16
2023-01-29T05:57:22.835Z,68.58
2023-01-29T05:59:49.484Z,68.78
2023-01-29T06:02:16.095Z,68.60
2023-01-29T06:04:42.781Z,69.04
2023-01-29T06:07:09.405Z,69.33
2023-01-29T06:09:36.117Z,69.31
2023-01-29T06:12:03.624Z,68.07
2023-01-29T06:14:30.292Z,69.29
2023-01-29T06:16:56.928Z,69.30
2023-01-29T06:19:23.579Z,70.18
2023-01-29T06:21:50.225Z,69.09
2023-01-29T06:24:16.888Z,67.57
2023-01-29T06:26:43.617Z,67.01
2023-01-29T06:29:10.264Z,67.78
2023-01-29T06:31:39.114Z,68.33
2023-01-29T06:34:08.115Z,67.40
2023-01-29T06:36:35.144Z,67.86
2023-01-29T06:39:01.902Z,66.91
2023-01-29T06:41:28.641Z,65.72
2023-01-29T06:43:55.287Z,67.97
2023-01-29T06:46:21.915Z,68.29
2023-01-29T06:48:49.176Z,67.00
2023-01-29T06:51:15.800Z,67.01
2023-01-29T06:53:46.449Z,66.47
2023-01-29T06:56:13.621Z,66.15
2023-01-29T06:58:40.260Z,66.66
2023-01-29T07:01:09.924Z,66.67
2023-01-29T07:03:37.124Z,66.46
2023-01-29T07:06:05.397Z,66.78
2023-01-29T07:08:36.846Z,67.14
2023-01-29T07:11:04.356Z,67.07
2023-01-29T07:13:31.045Z,67.25
2023-01-29T07:16:02.197Z,65.17
2023-01-29T07:18:29.625Z,65.00
2023-01-29T07:20:56.985Z,65.83
2023-01-29T07:23:24.428Z,65.44
2023-01-29T07:25:51.629Z,64.35
2023-01-29T07:28:19.729Z,65.21
2023-01-29T07:30:46.597Z,64.89
2023-01-29T07:33:13.226Z,63.88
2023-01-29T07:35:42.323Z,63.41
2023-01-29T07:38:11.434Z,63.80
2023-01-29T07:40:38.131Z,63.37
2023-01-29T07:43:07.486Z,62.31
2023-01-29T07:45:36.574Z,63.12
2023-01-29T07:48:04.379Z,63.54
2023-01-29T07:50:32.023Z,63.91
2023-01-29T07:52:58.864Z,65.13
2023-01-29T07:55:25.559Z,65.83
2023-01-29T07:57:59.751Z,65.14
2023-01-29T08:00:27.399Z,64.20
2023-01-29T08:02:54.207Z,64.30
2023-01-29T08:05:20.872Z,63.77
2023-01-29T08:08:05.756Z,62.29
2023-01-29T08:10:34.082Z,63.00
2023-01-29T08:13:02.195Z,63.12
2023-01-29T08:15:30.060Z,63.75
2023-01-29T08:17:58.255Z,62.59
2023-01-29T08:20:43.788Z,60.79
2023-01-29T08:23:14.937Z,57.98
2023-01-29T08:25:42.228Z,57.52
2023-01-29T08:28:08.987Z,56.47
2023-01-29T08:30:37.790Z,56.42
2023-01-29T08:33:04.638Z,55.72
2023-01-29T08:35:31.483Z,55.54
2023-01-29T08:38:01.040Z,56.18
2023-01-29T08:40:30.296Z,54.21
2023-01-29T08:43:02.938Z,55.15
2023-01-29T08:45:34.558Z,55.05
2023-01-29T08:48:02.212Z,54.08
2023-01-29T08:50:28.925Z,57.09
2023-01-29T08:52:59.845Z,55.18
2023-01-29T08:55:27.940Z,54.86
2023-01-29T08:57:55.502Z,54.15
2023-01-29T09:00:22.219Z,53.33
2023-01-29T09:02:49.069Z,55.81
2023-01-29T09:05:16.056Z,55.28
2023-01-29T09:07:42.923Z,56.59
2023-01-29T09:10:10.336Z,54.75
2023-01-29T09:12:36.988Z,53.85
2023-01-29T09:15:04.080Z,54.26
2023-01-29T09:17:30.773Z,54.54
2023-01-29T09:19:57.689Z,55.07
2023-01-29T09:22:24.409Z,53.83
2023-01-29T09:24:51.023Z,53.69
2023-01-29T09:27:17.731Z,52.88
2023-01-29T09:29:44.385Z,53.31
2023-01-29T09:32:11.021Z,54.16
2023-01-29T09:34:37.721Z,52.73
2023-01-29T09:37:04.510Z,53.47
2023-01-29T09:39:31.137Z,52.21
2023-01-29T09:42:11.035Z,52.20
2023-01-29T09:45:06.675Z,53.64
2023-01-29T09:47:35.918Z,52.43
2023-01-29T09:50:06.695Z,52.07
2023-01-29T09:52:46.749Z,52.05
2023-01-29T09:55:19.548Z,51.21
2023-01-29T09:57:48.304Z,51.12
2023-01-29T10:00:42.845Z,50.42
2023-01-29T10:03:25.284Z,51.28
2023-01-29T10:05:57.841Z,52.54
2023-01-29T10:09:05.078Z,53.42
2023-01-29T10:12:10.274Z,54.28
2023-01-29T10:15:11.895Z,52.93
2023-01-29T10:17:38.477Z,53.29
2023-01-29T10:20:36.246Z,53.65
2023-01-29T10:23:02.922Z,53.63
2023-01-29T10:25:36.770Z,55.47
2023-01-29T10:28:03.510Z,53.77
2023-01-29T10:30:46.284Z,51.83
2023-01-29T10:33:21.949Z,52.53
2023-01-29T10:35:56.921Z,53.28
2023-01-29T10:38:39.982Z,53.50
2023-01-29T10:41:30.693Z,53.78
2023-01-29T10:44:12.614Z,54.13
2023-01-29T10:46:51.520Z,53.45
2023-01-29T10:50:06.197Z,52.52
2023-01-29T10:53:10.958Z,51.92
2023-01-29T10:55:53.581Z,51.70
2023-01-29T10:58:38.787Z,53.12
2023-01-29T11:01:05.442Z,53.79
2023-01-29T11:03:33.887Z,53.01
2023-01-29T11:06:17.315Z,53.22
2023-01-29T11:08:51.652Z,52.82
2023-01-29T11:11:21.580Z,53.45
2023-01-29T11:13:59.529Z,52.46
2023-01-29T11:16:30.385Z,52.58
2023-01-29T11:18:59.543Z,52.01
2023-01-29T11:21:29.703Z,51.34
2023-01-29T11:24:14.939Z,51.56
2023-01-29T11:26:44.034Z,52.13
2023-01-29T11:29:32.096Z,52.66
2023-01-29T11:32:03.094Z,50.82
2023-01-29T11:34:29.770Z,51.67
2023-01-29T11:37:16.720Z,50.59
2023-01-29T11:39:45.793Z,50.69
2023-01-29T11:42:21.251Z,51.93
2023-01-29T11:44:48.543Z,51.57
2023-01-29T11:47:30.340Z,52.33
2023-01-29T11:50:02.725Z,51.69
2023-01-29T11:52:40.497Z,51.89
2023-01-29T11:55:17.617Z,50.07
2023-01-29T11:57:51.168Z,52.18
2023-01-29T12:00:24.913Z,51.08
2023-01-29T12:03:01.040Z,52.27
2023-01-29T12:05:28.355Z,51.17
2023-01-29T12:07:58.661Z,49.56
2023-01-29T12:10:33.078Z,50.86
2023-01-29T12:13:26.401Z,50.49
2023-01-29T12:16:10.103Z,48.38
2023-01-29T12:18:46.625Z,51.05
2023-01-29T12:21:56.057Z,50.94
2023-01-29T12:24:34.241Z,49.56
2023-01-29T12:27:25.277Z,49.40
2023-01-29T12:30:17.538Z,48.92
2023-01-29T12:32:52.870Z,47.81
2023-01-29T12:35:28.363Z,48.77
2023-01-29T12:37:59.589Z,50.53
2023-01-29T12:40:43.007Z,50.26
2023-01-29T12:43:16.515Z,49.87
2023-01-29T12:45:47.955Z,48.81
2023-01-29T12:48:21.743Z,47.96
2023-01-29T12:50:55.532Z,47.15
2023-01-29T12:53:34.871Z,48.30
2023-01-29T12:56:42.746Z,48.89
2023-01-29T12:59:15.048Z,49.82
2023-01-29T13:01:57.765Z,47.19
2023-01-29T13:04:52.070Z,48.40
2023-01-29T13:07:28.217Z,47.48
2023-01-29T13:10:07.533Z,45.48
2023-01-29T13:12:38.261Z,48.41
2023-01-29T13:15:22.308Z,48.80
2023-01-29T13:17:58.287Z,49.07
2023-01-29T13:20:37.447Z,46.65
2023-01-29T13:23:22.726Z,46.04
2023-01-29T13:25:54.237Z,46.44
2023-01-29T13:28:25.591Z,46.81
2023-01-29T13:31:10.805Z,48.35
2023-01-29T13:33:40.881Z,48.22
2023-01-29T13:36:18.484Z,48.30
2023-01-29T13:38:45.345Z,48.14
2023-01-29T13:41:14.685Z,46.91
2023-01-29T13:43:48.841Z,48.47
2023-01-29T13:46:19.140Z,48.02
2023-01-29T13:48:50.326Z,47.59
2023-01-29T13:51:22.764Z,47.54
2023-01-29T13:54:03.171Z,47.47
2023-01-29T13:56:29.792Z,47.31
2023-01-29T13:58:57.691Z,47.34
2023-01-29T14:01:49.485Z,46.46
2023-01-29T14:04:19.032Z,46.26
2023-01-29T14:06:49.468Z,45.95
2023-01-29T14:09:32.465Z,45.91
2023-01-29T14:11:59.934Z,46.86
2023-01-29T14:14:56.751Z,45.85
2023-01-29T14:17:27.169Z,45.89
2023-01-29T14:20:06.659Z,46.86
2023-01-29T14:22:34.771Z,47.38
2023-01-29T14:25:05.124Z,46.21
2023-01-29T14:27:33.732Z,47.52
2023-01-29T14:30:09.641Z,47.54
2023-01-29T14:32:40.345Z,45.78
2023-01-29T14:35:25.226Z,46.65
2023-01-29T14:37:57.652Z,46.45
2023-01-29T14:40:28.920Z,48.09
2023-01-29T14:42:58.558Z,48.96
2023-01-29T14:45:28.088Z,50.05
2023-01-29T14:47:56.156Z,52.36
2023-01-29T14:50:28.746Z,52.09
2023-01-29T14:53:13.851Z,51.75
2023-01-29T14:55:42.839Z,52.79
2023-01-29T14:58:41.985Z,54.65
2023-01-29T15:01:25.614Z,55.45
2023-01-29T15:04:14.503Z,54.01
2023-01-29T15:06:52.401Z,55.36
2023-01-29T15:09:37.034Z,54.71
2023-01-29T15:12:06.873Z,53.61
2023-01-29T15:14:41.838Z,53.87
2023-01-29T15:17:52.730Z,53.14
2023-01-29T15:20:31.285Z,52.08
2023-01-29T15:22:58.461Z,50.78
2023-01-29T15:25:28.027Z,49.05
2023-01-29T15:27:58.339Z,49.59
2023-01-29T15:30:32.885Z,49.34
2023-01-29T15:33:00.937Z,48.97
2023-01-29T15:35:39.547Z,48.26
2023-01-29T15:38:18.991Z,48.29
2023-01-29T15:40:57.468Z,49.33
2023-01-29T15:43:27.912Z,48.02
2023-01-29T15:46:06.951Z,46.78
2023-01-29T15:48:42.226Z,47.68
2023-01-29T15:51:16.724Z,50.18
2023-01-29T15:54:03.916Z,49.74
2023-01-29T15:56:40.371Z,49.94
2023-01-29T15:59:19.358Z,49.51
2023-01-29T16:01:46.205Z,48.91
2023-01-29T16:04:20.886Z,50.24
2023-01-29T16:06:49.887Z,49.91
2023-01-29T16:09:21.794Z,49.57
2023-01-29T16:11:50.190Z,50.38
2023-01-29T16:14:23.019Z,49.22
2023-01-29T16:16:49.725Z,49.73
2023-01-29T16:19:22.750Z,50.21
2023-01-29T16:21:58.719Z,53.85
2023-01-29T16:24:26.874Z,55.14
2023-01-29T16:27:04.433Z,55.27
2023-01-29T16:29:35.495Z,53.66
2023-01-29T16:32:04.084Z,52.08
2023-01-29T16:34:42.775Z,51.50
2023-01-29T16:37:33.485Z,50.82
2023-01-29T16:40:00.171Z,50.58
2023-01-29T16:42:29.109Z,50.35
2023-01-29T16:45:01.655Z,49.30
2023-01-29T16:47:32.375Z,48.53
2023-01-29T16:50:17.859Z,49.87
2023-01-29T16:53:12.337Z,49.60
2023-01-29T16:55:45.172Z,49.51
2023-01-29T16:58:38.119Z,49.61
2023-01-29T17:01:11.272Z,49.83
2023-01-29T17:03:41.031Z,49.65
2023-01-29T17:06:13.077Z,48.87
2023-01-29T17:08:43.502Z,48.96
2023-01-29T17:11:22.869Z,48.29
2023-01-29T17:13:49.641Z,49.57
2023-01-29T17:16:22.431Z,49.68
2023-01-29T17:18:49.326Z,49.47
2023-01-29T17:21:16.088Z,49.22
2023-01-29T17:23:43.324Z,50.29
2023-01-29T17:26:13.492Z,51.24
2023-01-29T17:28:41.734Z,50.40
2023-01-29T17:31:09.862Z,50.82
2023-01-29T17:33:42.823Z,50.81
2023-01-29T17:36:15.205Z,50.32
2023-01-29T17:38:42.830Z,52.87
2023-01-29T17:41:24.536Z,52.03
2023-01-29T17:43:51.181Z,52.54
2023-01-29T17:46:19.326Z,52.10
2023-01-29T17:48:47.066Z,52.49
2023-01-29T17:51:16.662Z,54.40
2023-01-29T17:53:46.075Z,53.96
2023-01-29T17:56:24.707Z,53.49
2023-01-29T17:58:51.329Z,54.34
2023-01-29T18:01:17.987Z,55.81
2023-01-29T18:03:44.748Z,55.14
2023-01-29T18:06:23.370Z,55.35
2023-01-29T18:08:49.993Z,56.70
2023-01-29T18:11:16.721Z,55.96
2023-01-29T18:13:43.506Z,56.01
2023-01-29T18:16:10.305Z,54.84
2023-01-29T18:18:36.987Z,53.79
2023-01-29T18:21:04.381Z,54.85
2023-01-29T18:23:31.048Z,55.75
2023-01-29T18:25:57.801Z,55.81
2023-01-29T18:28:24.920Z,55.27
2023-01-29T18:30:52.771Z,55.41
2023-01-29T18:33:19.600Z,55.39
2023-01-29T18:35:47.837Z,56.38
2023-01-29T18:38:14.702Z,57.95
2023-01-29T18:40:41.484Z,58.30
2023-01-29T18:43:09.783Z,58.58
2023-01-29T18:45:36.574Z,60.15
2023-01-29T18:48:03.401Z,61.04
2023-01-29T18:50:30.124Z,61.15
2023-01-29T18:52:59.722Z,61.18
2023-01-29T18:55:27.906Z,62.16
2023-01-29T18:58:28.591Z,60.01
2023-01-29T19:00:42.305Z,59.21
2023-01-29T19:03:11.251Z,59.67
2023-01-29T19:05:39.803Z,60.92
2023-01-29T19:08:06.748Z,62.28
2023-01-29T19:10:34.060Z,63.59
2023-01-29T19:13:01.340Z,62.65
2023-01-29T19:15:29.158Z,60.97
2023-01-29T19:17:56.679Z,62.02
2023-01-29T19:20:23.932Z,60.79
2023-01-29T19:22:50.633Z,59.81
2023-01-29T19:25:19.849Z,60.13
2023-01-29T19:27:46.952Z,59.26
2023-01-29T19:30:16.696Z,58.72
2023-01-29T19:32:43.438Z,59.82
2023-01-29T19:35:10.362Z,60.80
2023-01-29T19:37:37.227Z,59.23
2023-01-29T19:40:04.608Z,61.36
2023-01-29T19:42:31.269Z,61.53
2023-01-29T19:44:57.939Z,60.71
2023-01-29T19:47:24.638Z,60.78
2023-01-29T19:49:51.583Z,61.25
2023-01-29T19:52:18.356Z,62.33
2023-01-29T19:54:45.047Z,63.43
2023-01-29T19:57:11.739Z,61.39
2023-01-29T19:59:38.417Z,62.20
2023-01-29T20:02:09.278Z,61.89
2023-01-29T20:04:35.925Z,60.95
2023-01-29T20:07:02.589Z,60.03
2023-01-29T20:09:29.304Z,59.32
2023-01-29T20:11:55.969Z,60.49
2023-01-29T20:14:22.657Z,61.25
2023-01-29T20:16:49.260Z,61.05
2023-01-29T20:19:15.922Z,60.76
2023-01-29T20:21:45.947Z,62.79
2023-01-29T20:24:13.358Z,61.95
2023-01-29T20:26:40.284Z,60.15
2023-01-29T20:29:06.941Z,63.81
2023-01-29T20:31:33.695Z,63.60
2023-01-29T20:34:00.492Z,62.44
2023-01-29T20:36:27.216Z,64.00
2023-01-29T20:38:53.825Z,64.48
2023-01-29T20:41:20.516Z,63.31
2023-01-29T20:43:47.427Z,61.31
2023-01-29T20:46:14.325Z,59.78
2023-01-29T20:48:41.022Z,60.62
2023-01-29T20:51:14.809Z,60.07
2023-01-29T20:53:42.451Z,59.44
2023-01-29T20:56:10.149Z,59.55
2023-01-29T20:58:38.489Z,61.40
2023-01-29T21:01:10.117Z,60.27
2023-01-29T21:03:37.886Z,60.09
2023-01-29T21:06:05.095Z,59.69
2023-01-29T21:08:31.752Z,62.10
2023-01-29T21:10:58.477Z,60.17
2023-01-29T21:13:25.142Z,61.06
2023-01-29T21:15:51.946Z,59.54
2023-01-29T21:18:18.589Z,58.88
2023-01-29T21:20:45.722Z,59.05
2023-01-29T21:23:12.348Z,60.94
2023-01-29T21:25:38.972Z,61.19
2023-01-29T21:28:06.028Z,60.07
2023-01-29T21:30:32.946Z,60.62
2023-01-29T21:33:00.166Z,60.65
2023-01-29T21:35:26.764Z,59.54
2023-01-29T21:37:53.403Z,60.73
2023-01-29T21:40:20.346Z,63.49
2023-01-29T21:42:47.887Z,61.61
2023-01-29T21:45:14.890Z,62.67
2023-01-29T21:47:42.763Z,62.52
2023-01-29T21:50:13.268Z,62.73
2023-01-29T21:52:39.971Z,62.42
2023-01-29T21:55:06.959Z,63.35
2023-01-29T21:57:33.597Z,62.71
2023-01-29T22:00:00.304Z,64.51
2023-01-29T22:02:27.476Z,62.76
2023-01-29T22:04:54.802Z,62.22
2023-01-29T22:07:22.996Z,62.26
2023-01-29T22:09:49.730Z,61.00
2023-01-29T22:12:16.490Z,61.91
2023-01-29T22:14:43.111Z,62.92
2023-01-29T22:17:09.744Z,60.71
2023-01-29T22:19:36.616Z,63.27
2023-01-29T22:22:03.261Z,62.08
2023-01-29T22:24:29.865Z,61.49
2023-01-29T22:26:56.519Z,61.83
2023-01-29T22:29:23.207Z,61.21
2023-01-29T22:31:49.813Z,60.53
2023-01-29T22:34:16.404Z,61.47
2023-01-29T22:36:43.128Z,60.86
2023-01-29T22:39:10.311Z,59.51
2023-01-29T22:41:36.918Z,59.23
2023-01-29T22:44:03.595Z,59.47
2023-01-29T22:46:30.841Z,58.80
2023-01-29T22:48:57.463Z,59.98
2023-01-29T22:51:24.188Z,59.81
2023-01-29T22:53:55.633Z,59.13
2023-01-29T22:56:25.617Z,59.71
2023-01-29T22:58:54.043Z,60.39
2023-01-29T23:01:23.810Z,59.39
2023-01-29T23:03:50.661Z,58.46
2023-01-29T23:06:18.245Z,57.97
2023-01-29T23:08:45.123Z,59.10
2023-01-29T23:11:15.910Z,58.47
2023-01-29T23:13:48.711Z,58.83
2023-01-29T23:16:17.744Z,57.60
2023-01-29T23:18:48.436Z,57.12
2023-01-29T23:21:15.049Z,58.98
2023-01-29T23:23:44.072Z,57.44
2023-01-29T23:26:12.385Z,57.70
2023-01-29T23:28:39.047Z,57.57
2023-01-29T23:31:05.829Z,57.83
2023-01-29T23:33:32.501Z,57.72
2023-01-29T23:35:59.268Z,57.38
2023-01-29T23:38:26.009Z,57.07
2023-01-29T23:40:52.624Z,57.72
2023-01-29T23:43:20.378Z,56.89
2023-01-29T23:45:46.991Z,57.19
2023-01-29T23:48:13.600Z,57.14
2023-01-29T23:50:40.202Z,57.63
2023-01-29T23:53:06.808Z,56.59
2023-01-29T23:55:33.494Z,58.19
2023-01-29T23:58:00.134Z,57.57
